createdAt,value
2024-02-22T00:00:49.614Z,99200.00
2024-02-22T00:03:17.043Z,99154.00
2024-02-22T00:05:44.680Z,99182.00
2024-02-22T00:08:18.687Z,99164.00
2024-02-22T00:10:46.300Z,99185.00
2024-02-22T00:13:15.351Z,99177.00
2024-02-22T00:15:49.672Z,99152.00
2024-02-22T00:18:17.541Z,99168.00
2024-02-22T00:20:45.014Z,99162.00
2024-02-22T00:23:18.651Z,99159.00
2024-02-22T00:25:46.245Z,99160.00
2024-02-22T00:28:15.111Z,99156.00
2024-02-22T00:30:48.630Z,99156.00
2024-02-22T00:33:16.102Z,99147.00
2024-02-22T00:35:43.547Z,99150.00
2024-02-22T00:38:17.651Z,99146.00
2024-02-22T00:40:45.159Z,99127.00
2024-02-22T00:43:14.047Z,99143.00
2024-02-22T00:45:48.569Z,99123.00
2024-02-22T00:48:16.040Z,99123.00
2024-02-22T00:50:43.522Z,99129.00
2024-02-22T00:53:24.608Z,99131.00
2024-02-22T00:55:52.065Z,99138.00
2024-02-22T00:58:20.910Z,99130.00
2024-02-22T01:00:54.686Z,99123.00
2024-02-22T01:03:22.298Z,99117.00
2024-02-22T01:05:50.021Z,99116.00
2024-02-22T01:08:23.649Z,99075.00
2024-02-22T01:10:51.214Z,99073.00
2024-02-22T01:13:20.238Z,99105.00
2024-02-22T01:15:54.609Z,99106.00
2024-02-22T01:18:22.092Z,99075.00
2024-02-22T01:20:49.585Z,99100.00
2024-02-22T01:23:23.663Z,99076.00
2024-02-22T01:25:51.120Z,99096.00
2024-02-22T01:28:19.975Z,99077.00
2024-02-22T01:30:53.601Z,99092.00
2024-02-22T01:33:21.204Z,99087.00
2024-02-22T01:35:48.729Z,99087.00
2024-02-22T01:38:22.682Z,99078.00
2024-02-22T01:40:50.344Z,99079.00
2024-02-22T01:43:17.858Z,99061.00
2024-02-22T01:45:53.607Z,99054.00
2024-02-22T01:48:21.242Z,99032.00
2024-02-22T01:50:48.770Z,99048.00
2024-02-22T01:53:22.630Z,99032.00
2024-02-22T01:55:50.452Z,99036.00
2024-02-22T01:58:17.945Z,99032.00
2024-02-22T02:00:53.662Z,99017.00
2024-02-22T02:03:21.271Z,99049.00
2024-02-22T02:05:48.785Z,99029.00
2024-02-22T02:08:22.709Z,99004.00
2024-02-22T02:10:50.189Z,99023.00
2024-02-22T02:13:17.784Z,99027.00
2024-02-22T02:15:53.693Z,98990.00
2024-02-22T02:18:21.177Z,99024.00
2024-02-22T02:20:51.612Z,99030.00
2024-02-22T02:23:34.618Z,99025.00
2024-02-22T02:26:03.826Z,99016.00
2024-02-22T02:28:31.476Z,98994.00
2024-02-22T02:31:11.735Z,99022.00
2024-02-22T02:33:39.390Z,99011.00
2024-02-22T02:36:07.935Z,99010.00
2024-02-22T02:38:41.711Z,99009.00
2024-02-22T02:41:10.747Z,98992.00
2024-02-22T02:43:38.271Z,98977.00
2024-02-22T02:46:12.686Z,98971.00
2024-02-22T02:48:40.156Z,98964.00
2024-02-22T02:51:07.654Z,98963.00
2024-02-22T02:53:41.684Z,98958.00
2024-02-22T02:56:11.294Z,98956.00
2024-02-22T02:58:38.858Z,98939.00
2024-02-22T03:01:12.773Z,98950.00
2024-02-22T03:03:40.405Z,98948.00
2024-02-22T03:06:07.916Z,98959.00
2024-02-22T03:08:41.682Z,98946.00
2024-02-22T03:11:10.714Z,98955.00
2024-02-22T03:13:38.265Z,98940.00
2024-02-22T03:16:13.794Z,98947.00
2024-02-22T03:18:41.887Z,98944.00
2024-02-22T03:21:10.465Z,98945.00
2024-02-22T03:23:44.702Z,98923.00
2024-02-22T03:26:13.607Z,98930.00
2024-02-22T03:28:44.339Z,98920.00
2024-02-22T03:31:18.665Z,98916.00
2024-02-22T03:33:46.497Z,98912.00
2024-02-22T03:36:14.004Z,98903.00
2024-02-22T03:38:47.709Z,98876.00
2024-02-22T03:41:24.052Z,98895.00
2024-02-22T03:43:58.778Z,98904.00
2024-02-22T03:46:26.244Z,98888.00
2024-02-22T03:48:53.705Z,98896.00
2024-02-22T03:51:27.712Z,98904.00
2024-02-22T03:53:55.278Z,98907.00
2024-02-22T03:56:24.217Z,98890.00
2024-02-22T03:58:58.778Z,98878.00
2024-02-22T04:01:26.350Z,98874.00
2024-02-22T04:03:53.770Z,98864.00
2024-02-22T04:06:27.746Z,98825.00
2024-02-22T04:08:55.267Z,98855.00
2024-02-22T04:11:24.179Z,98847.00
2024-02-22T04:13:58.815Z,98850.00
2024-02-22T04:16:26.232Z,98822.00
2024-02-22T04:18:53.944Z,98822.00
2024-02-22T04:21:27.761Z,98846.00
2024-02-22T04:23:55.292Z,98833.00
2024-02-22T04:26:24.275Z,98826.00
2024-02-22T04:28:58.755Z,98851.00
2024-02-22T04:31:26.558Z,98818.00
2024-02-22T04:33:54.180Z,98851.00
2024-02-22T04:36:27.732Z,98849.00
2024-02-22T04:38:55.350Z,98851.00
2024-02-22T04:41:24.456Z,98846.00
2024-02-22T04:43:58.888Z,98828.00
2024-02-22T04:46:26.506Z,98814.00
2024-02-22T04:48:54.114Z,98822.00
2024-02-22T04:51:28.788Z,98817.00
2024-02-22T04:53:56.272Z,98812.00
2024-02-22T04:56:25.269Z,98825.00
2024-02-22T04:58:59.889Z,98822.00
2024-02-22T05:01:27.699Z,98810.00
2024-02-22T05:03:55.520Z,98823.00
2024-02-22T05:06:29.882Z,98826.00
2024-02-22T05:08:57.599Z,98819.00
2024-02-22T05:11:26.584Z,98824.00
2024-02-22T05:14:00.818Z,98823.00
2024-02-22T05:16:28.244Z,98800.00
2024-02-22T05:18:55.819Z,98812.00
2024-02-22T05:21:29.777Z,98815.00
2024-02-22T05:23:57.236Z,98820.00
2024-02-22T05:26:38.787Z,98817.00
2024-02-22T05:29:06.376Z,98812.00
2024-02-22T05:31:34.090Z,98817.00
2024-02-22T05:34:08.896Z,98812.00
2024-02-22T05:36:36.454Z,98805.00
2024-02-22T05:39:03.980Z,98832.00
2024-02-22T05:41:39.723Z,98828.00
2024-02-22T05:44:07.209Z,98822.00
2024-02-22T05:46:34.761Z,98799.00
2024-02-22T05:49:09.016Z,98786.00
2024-02-22T05:51:36.599Z,98764.00
2024-02-22T05:54:04.965Z,98754.00
2024-02-22T05:56:40.773Z,98743.00
2024-02-22T05:59:08.230Z,98774.00
2024-02-22T06:01:35.960Z,98763.00
2024-02-22T06:04:10.797Z,98750.00
2024-02-22T06:06:38.446Z,98760.00
2024-02-22T06:09:05.848Z,98756.00
2024-02-22T06:11:41.909Z,98750.00
2024-02-22T06:14:09.671Z,98733.00
2024-02-22T06:16:37.190Z,98776.00
2024-02-22T06:19:10.792Z,98761.00
2024-02-22T06:21:51.824Z,98723.00
2024-02-22T06:24:25.761Z,98754.00
2024-02-22T06:27:07.787Z,98749.00
2024-02-22T06:29:41.791Z,98780.00
2024-02-22T06:32:09.246Z,98744.00
2024-02-22T06:34:36.824Z,98770.00
2024-02-22T06:37:10.731Z,98782.00
2024-02-22T06:39:38.169Z,98778.00
2024-02-22T06:42:07.514Z,98760.00
2024-02-22T06:44:41.788Z,98782.00
2024-02-22T06:47:09.233Z,98741.00
2024-02-22T06:49:36.839Z,98794.00
2024-02-22T06:52:11.789Z,98768.00
2024-02-22T06:54:39.218Z,98773.00
2024-02-22T06:57:08.087Z,98764.00
2024-02-22T06:59:41.783Z,98766.00
2024-02-22T07:02:09.322Z,98763.00
2024-02-22T07:04:37.020Z,98753.00
2024-02-22T07:07:11.795Z,98746.00
2024-02-22T07:09:39.335Z,98749.00
2024-02-22T07:12:09.521Z,98742.00
2024-02-22T07:14:43.768Z,98699.00
2024-02-22T07:17:11.188Z,98729.00
2024-02-22T07:19:38.826Z,98721.00
2024-02-22T07:22:12.859Z,98681.00
2024-02-22T07:24:40.305Z,98719.00
2024-02-22T07:27:09.119Z,98711.00
2024-02-22T07:29:42.778Z,98717.00
2024-02-22T07:32:10.210Z,98719.00
2024-02-22T07:34:37.728Z,98725.00
2024-02-22T07:37:11.862Z,98714.00
2024-02-22T07:39:39.294Z,98707.00
2024-02-22T07:42:08.527Z,98707.00
2024-02-22T07:44:42.789Z,98712.00
2024-02-22T07:47:10.476Z,98706.00
2024-02-22T07:49:37.991Z,98714.00
2024-02-22T07:52:12.759Z,98721.00
2024-02-22T07:54:40.179Z,98720.00
2024-02-22T07:57:08.938Z,98721.00
2024-02-22T07:59:42.778Z,98707.00
2024-02-22T08:02:12.977Z,98692.00
2024-02-22T08:04:40.598Z,98709.00
2024-02-22T08:07:17.830Z,98721.00
2024-02-22T08:09:45.320Z,98715.00
2024-02-22T08:12:33.903Z,98706.00
2024-02-22T08:15:05.043Z,98713.00
2024-02-22T08:17:32.434Z,98712.00
2024-02-22T08:20:07.070Z,98709.00
2024-02-22T08:22:34.632Z,98704.00
2024-02-22T08:25:02.112Z,98673.00
2024-02-22T08:27:46.366Z,98688.00
2024-02-22T08:30:21.750Z,98680.00
2024-02-22T08:32:55.864Z,98663.00
2024-02-22T08:35:36.899Z,98663.00
2024-02-22T08:38:11.851Z,98661.00
2024-02-22T08:40:40.465Z,98665.00
2024-02-22T08:43:09.941Z,98667.00
2024-02-22T08:45:43.819Z,98673.00
2024-02-22T08:48:11.345Z,98667.00
2024-02-22T08:50:39.050Z,98645.00
2024-02-22T08:53:13.012Z,98666.00
2024-02-22T08:55:40.609Z,98659.00
2024-02-22T08:58:09.353Z,98661.00
2024-02-22T09:00:42.970Z,98668.00
2024-02-22T09:03:10.596Z,98673.00
2024-02-22T09:05:38.303Z,98690.00
2024-02-22T09:08:12.942Z,98668.00
2024-02-22T09:10:40.424Z,98659.00
2024-02-22T09:13:09.438Z,98670.00
2024-02-22T09:15:43.839Z,98659.00
2024-02-22T09:18:11.303Z,98647.00
2024-02-22T09:20:38.878Z,98649.00
2024-02-22T09:23:12.897Z,98653.00
2024-02-22T09:25:40.319Z,98639.00
2024-02-22T09:28:09.327Z,98641.00
2024-02-22T09:30:42.907Z,98643.00
2024-02-22T09:33:10.319Z,98644.00
2024-02-22T09:35:38.421Z,98631.00
2024-02-22T09:38:12.899Z,98638.00
2024-02-22T09:40:40.252Z,98631.00
2024-02-22T09:43:09.079Z,98634.00
2024-02-22T09:45:42.905Z,98635.00
2024-02-22T09:48:10.458Z,98632.00
2024-02-22T09:50:38.030Z,98620.00
2024-02-22T09:53:11.906Z,98619.00
2024-02-22T09:55:39.406Z,98612.00
2024-02-22T09:58:08.181Z,98642.00
2024-02-22T10:00:41.947Z,98650.00
2024-02-22T10:03:09.420Z,98648.00
2024-02-22T10:05:37.272Z,98641.00
2024-02-22T10:08:19.015Z,98630.00
2024-02-22T10:10:46.761Z,98632.00
2024-02-22T10:13:28.069Z,98617.00
2024-02-22T10:15:55.661Z,98613.00
2024-02-22T10:18:26.742Z,98614.00
2024-02-22T10:21:00.923Z,98582.00
2024-02-22T10:23:43.144Z,98601.00
2024-02-22T10:26:16.935Z,98614.00
2024-02-22T10:29:02.902Z,98603.00
2024-02-22T10:31:36.986Z,98586.00
2024-02-22T10:34:04.734Z,98596.00
2024-02-22T10:41:58.725Z,98578.00
2024-02-22T10:44:32.730Z,98576.00
2024-02-22T10:47:13.737Z,98578.00
2024-02-22T10:49:54.806Z,98592.00
2024-02-22T10:52:23.394Z,98570.00
2024-02-22T11:00:38.820Z,98568.00
2024-02-22T11:03:19.702Z,98563.00
2024-02-22T11:05:56.758Z,98555.00
2024-02-22T11:11:10.865Z,98557.00
2024-02-22T11:14:03.812Z,98559.00
2024-02-22T11:16:44.751Z,98549.00
2024-02-22T11:19:30.724Z,98526.00
2024-02-22T11:22:22.738Z,98536.00
2024-02-22T11:24:52.728Z,98509.00
2024-02-22T11:27:44.760Z,98508.00
2024-02-22T11:30:28.758Z,98526.00
2024-02-22T11:33:09.866Z,98531.00
2024-02-22T11:35:50.718Z,98535.00
2024-02-22T11:38:26.817Z,98535.00
2024-02-22T11:41:04.804Z,98527.00
2024-02-22T11:43:38.787Z,98523.00
2024-02-22T11:46:20.724Z,98519.00
2024-02-22T11:48:54.792Z,98472.00
2024-02-22T11:51:37.752Z,98489.00
2024-02-22T11:54:18.922Z,98461.00
2024-02-22T11:56:46.345Z,98444.00
2024-02-22T11:59:13.869Z,98429.00
2024-02-22T12:01:55.878Z,98446.00
2024-02-22T12:04:36.991Z,98430.00
2024-02-22T12:10:09.815Z,98417.00
2024-02-22T12:12:37.266Z,98419.00
2024-02-22T12:15:05.396Z,98402.00
2024-02-22T12:17:40.852Z,98405.00
2024-02-22T12:20:21.948Z,98396.00
2024-02-22T12:22:55.885Z,98391.00
2024-02-22T12:25:23.440Z,98347.00
2024-02-22T12:30:31.759Z,98389.00
2024-02-22T12:33:00.827Z,98377.00
2024-02-22T12:38:00.841Z,98373.00
2024-02-22T12:40:41.778Z,98372.00
2024-02-22T12:43:23.616Z,98359.00
2024-02-22T12:45:51.265Z,98364.00
2024-02-22T12:48:20.329Z,98343.00
2024-02-22T12:50:54.835Z,98355.00
2024-02-22T12:53:22.276Z,98335.00
2024-02-22T12:56:02.909Z,98314.00
2024-02-22T12:58:43.814Z,98330.00
2024-02-22T13:01:24.790Z,98324.00
2024-02-22T13:03:53.595Z,98317.00
2024-02-22T13:06:37.359Z,98307.00
2024-02-22T13:09:19.860Z,98262.00
2024-02-22T13:12:03.461Z,98310.00
2024-02-22T13:14:30.993Z,98278.00
2024-02-22T13:17:11.849Z,98312.00
2024-02-22T13:19:40.764Z,98310.00
2024-02-22T13:22:08.292Z,98298.00
2024-02-22T13:24:41.846Z,98294.00
2024-02-22T13:27:09.292Z,98284.00
2024-02-22T13:29:36.744Z,98296.00
2024-02-22T13:32:11.315Z,98293.00
2024-02-22T13:34:40.635Z,98285.00
2024-02-22T13:40:04.364Z,98271.00
2024-02-22T13:42:41.053Z,98270.00
2024-02-22T13:45:15.891Z,98259.00
2024-02-22T13:50:25.665Z,98252.00
2024-02-22T13:52:59.905Z,98262.00
2024-02-22T13:55:27.309Z,98249.00
2024-02-22T13:57:54.872Z,98221.00
2024-02-22T14:00:28.998Z,98253.00
2024-02-22T14:02:59.272Z,98245.00
2024-02-22T14:05:35.977Z,98216.00
2024-02-22T14:08:07.762Z,98233.00
2024-02-22T14:10:35.568Z,98216.00
2024-02-22T14:13:09.870Z,98220.00
2024-02-22T14:15:37.867Z,98202.00
2024-02-22T14:18:06.418Z,98212.00
2024-02-22T14:20:43.040Z,98191.00
2024-02-22T14:23:12.885Z,98206.00
2024-02-22T14:25:50.883Z,98180.00
2024-02-22T14:28:18.328Z,98189.00
2024-02-22T14:30:45.746Z,98195.00
2024-02-22T14:33:19.990Z,98189.00
2024-02-22T14:35:48.863Z,98186.00
2024-02-22T14:38:16.304Z,98183.00
2024-02-22T14:40:52.569Z,98175.00
2024-02-22T14:43:34.897Z,98156.00
2024-02-22T14:46:15.911Z,98174.00
2024-02-22T14:51:27.929Z,98174.00
2024-02-22T14:54:02.014Z,98168.00
2024-02-22T14:56:35.927Z,98156.00
2024-02-22T14:59:03.595Z,98153.00
2024-02-22T15:01:44.897Z,98146.00
2024-02-22T15:04:25.964Z,98150.00
2024-02-22T15:07:00.925Z,98135.00
2024-02-22T15:09:28.373Z,98129.00
2024-02-22T15:11:55.977Z,98138.00
2024-02-22T15:14:29.917Z,98146.00
2024-02-22T15:17:04.237Z,98147.00
2024-02-22T15:19:37.954Z,98142.00
2024-02-22T15:22:06.878Z,98134.00
2024-02-22T15:24:34.245Z,98143.00
2024-02-22T15:27:07.893Z,98141.00
2024-02-22T15:29:38.028Z,98128.00
2024-02-22T15:32:06.569Z,98128.00
2024-02-22T15:34:41.044Z,98118.00
2024-02-22T15:37:10.076Z,98114.00
2024-02-22T15:39:37.475Z,98108.00
2024-02-22T15:42:11.931Z,98106.00
2024-02-22T15:44:39.375Z,98102.00
2024-02-22T15:47:06.986Z,98100.00
2024-02-22T15:49:41.079Z,98103.00
2024-02-22T15:52:09.915Z,98085.00
2024-02-22T15:54:38.334Z,98080.00
2024-02-22T15:57:12.955Z,98092.00
2024-02-22T15:59:40.346Z,98087.00
2024-02-22T16:02:07.828Z,98090.00
2024-02-22T16:04:42.008Z,98088.00
2024-02-22T16:07:13.930Z,98064.00
2024-02-22T16:09:51.328Z,98081.00
2024-02-22T16:12:18.755Z,98061.00
2024-02-22T16:14:46.288Z,98051.00
2024-02-22T16:17:20.051Z,98068.00
2024-02-22T16:19:47.531Z,98058.00
2024-02-22T16:22:16.349Z,98056.00
2024-02-22T16:24:49.992Z,98029.00
2024-02-22T16:27:17.341Z,98049.00
2024-02-22T16:29:44.797Z,98040.00
2024-02-22T16:32:18.982Z,98039.00
2024-02-22T16:34:46.436Z,98043.00
2024-02-22T16:37:15.279Z,98033.00
2024-02-22T16:39:50.911Z,98032.00
2024-02-22T16:42:18.311Z,98004.00
2024-02-22T16:44:46.465Z,98008.00
2024-02-22T16:47:20.239Z,98009.00
2024-02-22T16:49:47.685Z,98008.00
2024-02-22T16:52:16.506Z,98003.00
2024-02-22T16:54:56.932Z,98003.00
2024-02-22T17:00:06.013Z,97998.00
2024-02-22T17:02:33.510Z,97996.00
2024-02-22T17:05:01.238Z,97972.00
2024-02-22T17:07:36.950Z,97985.00
2024-02-22T17:10:04.906Z,97981.00
2024-02-22T17:12:32.314Z,97974.00
2024-02-22T17:15:05.970Z,97967.00
2024-02-22T17:17:33.485Z,97975.00
2024-02-22T17:20:01.003Z,97976.00
2024-02-22T17:22:36.005Z,97975.00
2024-02-22T17:27:51.938Z,97970.00
2024-02-22T17:30:19.463Z,97953.00
2024-02-22T17:32:46.991Z,97957.00
2024-02-22T17:35:21.100Z,97953.00
2024-02-22T17:37:49.970Z,97962.00
2024-02-22T17:40:30.959Z,97948.00
2024-02-22T17:43:11.985Z,97947.00
2024-02-22T17:45:45.960Z,97950.00
2024-02-22T17:48:13.523Z,97939.00
2024-02-22T17:53:21.158Z,97930.00
2024-02-22T17:55:48.725Z,97946.00
2024-02-22T17:58:16.220Z,97929.00
2024-02-22T18:00:50.196Z,97936.00
2024-02-22T18:03:17.723Z,97944.00
2024-02-22T18:05:59.078Z,97947.00
2024-02-22T18:11:26.762Z,97956.00
2024-02-22T18:14:03.840Z,97940.00
2024-02-22T18:16:38.534Z,97942.00
2024-02-22T18:19:06.150Z,97933.00
2024-02-22T18:21:33.703Z,97933.00
2024-02-22T18:24:07.510Z,97925.00
2024-02-22T18:26:36.411Z,97896.00
2024-02-22T18:29:04.013Z,97919.00
2024-02-22T18:31:38.437Z,97913.00
2024-02-22T18:34:06.100Z,97922.00
2024-02-22T18:36:33.703Z,97913.00
2024-02-22T18:39:08.862Z,97913.00
2024-02-22T18:41:39.027Z,97904.00
2024-02-22T18:44:06.542Z,97862.00
2024-02-22T18:46:40.655Z,97865.00
2024-02-22T18:49:08.228Z,97873.00
2024-02-22T18:51:35.814Z,97897.00
2024-02-22T18:54:09.534Z,97892.00
2024-02-22T18:56:38.467Z,97883.00
2024-02-22T18:59:06.124Z,97880.00
2024-02-22T19:01:40.559Z,97879.00
2024-02-22T19:04:08.161Z,97880.00
2024-02-22T19:06:35.669Z,97851.00
2024-02-22T19:09:09.505Z,97855.00
2024-02-22T19:11:38.642Z,97875.00
2024-02-22T19:14:06.285Z,97872.00
2024-02-22T19:16:41.542Z,97869.00
2024-02-22T19:21:57.524Z,97859.00
2024-02-22T19:27:08.480Z,97831.00
2024-02-22T19:29:42.587Z,97836.00
2024-02-22T19:32:16.564Z,97844.00
2024-02-22T19:34:44.199Z,97831.00
2024-02-22T19:37:11.804Z,97789.00
2024-02-22T19:39:45.547Z,97806.00
2024-02-22T19:42:14.576Z,97816.00
2024-02-22T19:44:44.141Z,97814.00
2024-02-22T19:47:18.499Z,97782.00
2024-02-22T19:49:59.547Z,97810.00
2024-02-22T19:52:33.484Z,97802.00
2024-02-22T19:55:14.502Z,97794.00
2024-02-22T19:57:49.477Z,97794.00
2024-02-22T20:00:31.612Z,97790.00
2024-02-22T20:03:05.551Z,97782.00
2024-02-22T20:05:33.111Z,97799.00
2024-02-22T20:08:00.705Z,97794.00
2024-02-22T20:10:34.506Z,97786.00
2024-02-22T20:13:02.117Z,97786.00
2024-02-22T20:15:31.128Z,97720.00
2024-02-22T20:18:05.649Z,97774.00
2024-02-22T20:20:33.297Z,97781.00
2024-02-22T20:23:00.857Z,97773.00
2024-02-22T20:25:35.628Z,97768.00
2024-02-22T20:28:03.835Z,97755.00
2024-02-22T20:30:32.941Z,97755.00
2024-02-22T20:33:06.586Z,97754.00
2024-02-22T20:35:34.438Z,97744.00
2024-02-22T20:38:02.042Z,97726.00
2024-02-22T20:40:36.569Z,97710.00
2024-02-22T20:43:04.305Z,97697.00
2024-02-22T20:45:33.319Z,97707.00
2024-02-22T20:48:07.590Z,97711.00
2024-02-22T20:50:35.143Z,97723.00
2024-02-22T20:53:02.739Z,97731.00
2024-02-22T20:55:36.556Z,97738.00
2024-02-22T20:58:04.247Z,97695.00
2024-02-22T21:00:33.160Z,97725.00
2024-02-22T21:03:07.533Z,97714.00
2024-02-22T21:05:35.364Z,97714.00
2024-02-22T21:08:03.391Z,97686.00
2024-02-22T21:10:37.549Z,97706.00
2024-02-22T21:13:05.442Z,97675.00
2024-02-22T21:15:34.308Z,97648.00
2024-02-22T21:18:08.583Z,97683.00
2024-02-22T21:20:36.135Z,97692.00
2024-02-22T21:23:03.751Z,97656.00
2024-02-22T21:25:37.603Z,97674.00
2024-02-22T21:28:05.561Z,97685.00
2024-02-22T21:30:34.992Z,97682.00
2024-02-22T21:33:10.668Z,97671.00
2024-02-22T21:35:53.561Z,97676.00
2024-02-22T21:38:27.725Z,97632.00
2024-02-22T21:41:08.581Z,97650.00
2024-02-22T21:43:49.562Z,97651.00
2024-02-22T21:46:19.211Z,97627.00
2024-02-22T21:48:46.738Z,97653.00
2024-02-22T21:51:20.589Z,97660.00
2024-02-22T21:54:02.587Z,97635.00
2024-02-22T21:56:36.593Z,97617.00
2024-02-22T21:59:04.212Z,97613.00
2024-02-22T22:04:14.561Z,97623.00
2024-02-22T22:06:41.986Z,97569.00
2024-02-22T22:09:23.621Z,97565.00
2024-02-22T22:11:51.140Z,97593.00
2024-02-22T22:14:18.681Z,97595.00
2024-02-22T22:17:00.566Z,97598.00
2024-02-22T22:19:28.065Z,97585.00
2024-02-22T22:21:55.629Z,97578.00
2024-02-22T22:24:29.656Z,97578.00
2024-02-22T22:26:57.074Z,97536.00
2024-02-22T22:29:24.634Z,97549.00
2024-02-22T22:32:00.634Z,97543.00
2024-02-22T22:34:28.279Z,97527.00
2024-02-22T22:36:55.873Z,97530.00
2024-02-22T22:39:29.609Z,97548.00
2024-02-22T22:41:58.286Z,97552.00
2024-02-22T22:44:26.508Z,97528.00
2024-02-22T22:47:03.640Z,97554.00
2024-02-22T22:49:31.112Z,97557.00
2024-02-22T22:51:58.624Z,97530.00
2024-02-22T22:54:32.670Z,97509.00
2024-02-22T22:57:00.205Z,97488.00
2024-02-22T22:59:27.705Z,97523.00
2024-02-22T23:02:07.684Z,97537.00
2024-02-22T23:04:37.443Z,97515.00
2024-02-22T23:07:15.869Z,97514.00
2024-02-22T23:09:43.315Z,97502.00
2024-02-22T23:12:11.061Z,97496.00
2024-02-22T23:14:45.657Z,97500.00
2024-02-22T23:17:14.583Z,97526.00
2024-02-22T23:19:42.049Z,97518.00
2024-02-22T23:22:16.599Z,97521.00
2024-02-22T23:24:44.129Z,97511.00
2024-02-22T23:27:11.860Z,97492.00
2024-02-22T23:29:45.593Z,97499.00
2024-02-22T23:32:14.454Z,97474.00
2024-02-22T23:34:42.093Z,97470.00
2024-02-22T23:37:16.606Z,97498.00
2024-02-22T23:39:45.757Z,97486.00
2024-02-22T23:42:13.414Z,97505.00
2024-02-22T23:44:47.692Z,97474.00
2024-02-22T23:47:16.658Z,97447.00
2024-02-22T23:49:44.221Z,97488.00
2024-02-22T23:52:18.650Z,97473.00
2024-02-22T23:54:46.034Z,97439.00
2024-02-22T23:57:13.573Z,97432.00
2024-02-22T23:59:47.677Z,97455.00
